首页
METAR-TAF:

METAR-TAF

机场 :

渥太华麦克唐纳-卡蒂埃国际机场

渥太華, 安大略省, 加拿大

纬度: 45-19N, 经度: 075-40W, 海拔: 116米

当前天气观测

该预报发布于1小时和11分钟前的09:00 UTC
风速5节,风向西转西南
温度 3°C
湿度 93%
气压 1022 hPa
能見度: 24.1公里
少量云层高于14000英尺

METAR: CYOW 010900Z 24005KT 15SM FEW140 03/02 A3017 RMK AC1 AC TR SLP220

时间: 06:11 (10:11 UTC)

预报

该预报发布于1小时和30分钟前的08:41 UTC
预报有效从01日的 09点(UTC)到 02日的 06点(UTC)
风速3节,风向多变
能見度: 10公里
少量云层高于10000英尺
几率 30%
从 01日的 09点(UTC)到 01日的 12点(UTC)
能見度: 1.6公里
轻雾
从 01日的 1200点(UTC)
风速5节,风向西
能見度: 10公里
多云层高于5000英尺
短暂存在
从 01日的 12点(UTC)到 01日的 22点(UTC)
能見度: 10公里
小阵雨
成为
从 01日的 14点(UTC)到 01日的 16点(UTC)
风速10节,风向西转西南
从 01日的 2200点(UTC)
风速5节,风向西南
能見度: 10公里
散云层高于5000英尺
短暂存在
从 01日的 22点(UTC)到 02日的 02点(UTC)
多云层高于5000英尺
成为
从 01日的 23点(UTC)到 02日的 01点(UTC)
风速5节,风向东转东南

TAF: CYOW 010841Z 0109/0206 VRB03KT P6SM FEW100 PROB30 0109/0112 1SM BR FM011200 27005KT P6SM BKN050 TEMPO 0112/0122 P6SM -SHRA BECMG 0114/0116 25010KT FM012200 23005KT P6SM SCT050 TEMPO 0122/0202 BKN050 BECMG 0123/0201 11005KT RMK NXT FCST BY 011200Z

超过4000个机场的气象观测和天气预报(METAR&TAF报告)。

可查询的气象台以黄色和红色小点在地图上表示。

将鼠标移到小点上方,可查看气象台名称。

然后点击查看天气观测和预报。

如需切换地图:点击带黑十字的绿色按钮放大地图;点击带横线的绿色按钮缩小地图;或者点击绿色箭头查看邻近地区的地图。


METAR-TAF: